Time;durP1;ratioP1;P1;durP2;ratioP2;P2;SDS_P1;SDS_P2;PMS_P1;PMS_P2;Temp;Humidity;BMP_temperature;BMP_pressure;BME280_temperature;BME280_humidity;BME280_pressure;Samples;Min_cycle;Max_cycle;Signal;HPM_P1;HPM_P2
2022/03/24 00:01:56;;;;;;;22.50;12.05;;;;;;;6.12;56.37;102882.44;5032993;28;20519;-81
2022/03/24 00:04:22;;;;;;;21.88;11.45;;;;;;;6.07;57.10;102899.41;5033468;28;20017;-81
2022/03/24 00:06:48;;;;;;;23.45;11.77;;;;;;;6.00;56.71;102894.88;5034091;28;20477;-81
2022/03/24 00:09:13;;;;;;;22.52;11.25;;;;;;;5.94;56.79;102889.44;5033480;28;20084;-82
2022/03/24 00:11:40;;;;;;;21.13;10.55;;;;;;;5.88;56.85;102895.25;5048021;28;20167;-81
2022/03/24 00:14:05;;;;;;;;;;;;;;;5.82;57.14;102890.75;5034482;28;20461;-82
2022/03/24 00:16:30;;;;;;;22.03;11.37;;;;;;;5.80;56.96;102888.94;5032991;28;20006;-82
2022/03/24 00:18:56;;;;;;;23.15;11.73;;;;;;;5.70;57.17;102878.28;5033010;28;20017;-82
2022/03/24 00:21:23;;;;;;;23.58;12.38;;;;;;;5.69;57.19;102881.69;5033244;28;20148;-82
2022/03/24 00:23:49;;;;;;;23.70;12.27;;;;;;;5.63;57.41;102881.44;5032692;28;20037;-81
2022/03/24 00:26:14;;;;;;;24.08;12.57;;;;;;;5.61;57.61;102885.69;5033621;28;20025;-82
2022/03/24 00:28:41;;;;;;;23.20;11.82;;;;;;;5.54;57.59;102884.56;5033262;28;20057;-82
2022/03/24 00:31:07;;;;;;;23.58;12.23;;;;;;;5.48;58.07;102876.59;5018481;28;20568;-82
2022/03/24 00:33:32;;;;;;;24.35;12.73;;;;;;;5.41;57.80;102878.03;5017090;28;20025;-81
2022/03/24 00:35:57;;;;;;;24.30;12.55;;;;;;;5.38;57.74;102871.91;5013757;28;20096;-82
2022/03/24 00:38:26;;;;;;;25.25;13.68;;;;;;;5.37;58.21;102872.72;5012472;28;20022;-82
2022/03/24 00:40:51;;;;;;;24.42;13.40;;;;;;;5.30;58.17;102861.28;5013609;28;20022;-82
2022/03/24 00:43:17;;;;;;;25.25;13.27;;;;;;;5.32;58.29;102871.66;5013154;28;20421;-80
2022/03/24 00:45:42;;;;;;;24.90;13.05;;;;;;;5.29;58.37;102871.53;5012767;28;20029;-81
2022/03/24 00:48:08;;;;;;;23.38;12.20;;;;;;;5.26;58.75;102870.59;5013631;28;20030;-82
2022/03/24 00:50:35;;;;;;;25.20;13.48;;;;;;;5.25;58.57;102866.25;5012832;28;20018;-81
2022/03/24 00:53:01;;;;;;;23.75;12.73;;;;;;;5.22;58.22;102866.16;5013427;28;20025;-82
2022/03/24 00:55:26;;;;;;;24.83;12.85;;;;;;;5.16;58.71;102868.47;5012497;28;20503;-82
2022/03/24 00:57:54;;;;;;;26.00;13.02;;;;;;;5.13;58.71;102862.34;5012126;28;20855;-82
2022/03/24 01:00:25;;;;;;;25.10;12.98;;;;;;;5.09;59.10;102869.94;5012893;28;20041;-81
2022/03/24 01:02:54;;;;;;;25.75;12.95;;;;;;;5.06;59.22;102863.78;5013090;28;20485;-82
2022/03/24 01:05:21;;;;;;;24.67;13.43;;;;;;;5.03;59.09;102854.25;5012337;28;20022;-81
2022/03/24 01:07:47;;;;;;;24.20;12.98;;;;;;;4.98;59.51;102852.31;5013067;28;20037;-81
2022/03/24 01:10:15;;;;;;;24.73;13.20;;;;;;;4.95;59.54;102860.78;5013376;28;20608;-82
2022/03/24 01:12:41;;;;;;;25.50;13.65;;;;;;;4.95;59.34;102853.94;5012434;28;20382;-82
2022/03/24 01:15:11;;;;;;;25.15;14.05;;;;;;;4.94;59.65;102859.91;5012833;28;20030;-82
2022/03/24 01:17:37;;;;;;;25.80;13.63;;;;;;;4.90;59.07;102858.00;5012801;28;20486;-81
2022/03/24 01:20:04;;;;;;;24.88;13.35;;;;;;;4.89;59.37;102864.00;5011552;28;20077;-82
2022/03/24 01:22:30;;;;;;;25.85;14.15;;;;;;;4.84;59.34;102855.19;5012752;28;20442;-81
2022/03/24 01:24:56;;;;;;;24.65;13.30;;;;;;;4.79;59.65;102855.00;5012323;28;20104;-81
2022/03/24 01:27:25;;;;;;;23.55;12.55;;;;;;;4.74;60.24;102853.94;5011723;28;20041;-82
2022/03/24 01:29:51;;;;;;;24.60;13.23;;;;;;;4.66;59.86;102854.44;5013279;28;20121;-82
2022/03/24 01:32:17;;;;;;;25.58;13.90;;;;;;;4.62;59.95;102850.84;5012881;28;20117;-81
2022/03/24 01:34:42;;;;;;;26.15;13.88;;;;;;;4.63;59.83;102847.47;5012161;28;20434;-81
2022/03/24 01:37:08;;;;;;;26.27;14.35;;;;;;;4.61;60.17;102844.84;5013095;28;20126;-81
2022/03/24 01:39:33;;;;;;;25.52;13.73;;;;;;;4.60;59.74;102839.66;5012490;28;20030;-81
2022/03/24 01:42:00;;;;;;;24.85;13.30;;;;;;;4.58;60.46;102841.28;5013548;28;20112;-81
2022/03/24 01:44:27;;;;;;;24.80;12.75;;;;;;;4.54;60.89;102835.13;5032517;28;20046;-82
2022/03/24 01:47:00;;;;;;;21.33;11.23;;;;;;;4.46;63.32;102831.31;5032136;28;20024;-81
2022/03/24 01:49:28;;;;;;;25.25;13.52;;;;;;;4.36;65.83;102829.19;5032012;28;20029;-82
2022/03/24 01:51:54;;;;;;;24.13;12.55;;;;;;;4.30;62.30;102824.66;5032425;28;20048;-82
2022/03/24 01:54:22;;;;;;;25.00;13.17;;;;;;;4.31;61.18;102831.56;5030160;28;20026;-81
2022/03/24 01:56:47;;;;;;;23.80;12.65;;;;;;;4.29;61.51;102828.94;5012412;28;20381;-82
2022/03/24 01:59:16;;;;;;;24.48;12.35;;;;;;;4.28;61.98;102831.44;5012848;28;20026;-81
2022/03/24 02:01:43;;;;;;;22.15;11.48;;;;;;;4.24;61.36;102822.72;5011986;28;20450;-82
2022/03/24 02:04:09;;;;;;;24.42;12.10;;;;;;;4.20;61.22;102819.94;5012527;28;20033;-81
2022/03/24 02:06:36;;;;;;;22.80;11.60;;;;;;;4.20;61.62;102825.09;5012167;28;20478;-81
2022/03/24 02:09:02;;;;;;;21.70;10.60;;;;;;;4.15;61.56;102825.78;5011767;28;20037;-81
2022/03/24 02:11:29;;;;;;;21.85;10.57;;;;;;;4.07;61.67;102814.28;5023587;22;20084;-81
2022/03/24 02:13:55;;;;;;;22.45;11.00;;;;;;;4.00;61.71;102819.97;5032200;28;20486;-81
2022/03/24 02:16:21;;;;;;;21.88;11.52;;;;;;;3.93;67.14;102823.94;5031540;28;20025;-81
2022/03/24 02:18:47;;;;;;;21.85;10.93;;;;;;;3.89;63.36;102826.31;5032400;28;20497;-81
2022/03/24 02:21:15;;;;;;;23.10;11.48;;;;;;;3.90;62.23;102822.94;5032006;28;20037;-81
2022/03/24 02:23:42;;;;;;;22.27;11.25;;;;;;;3.89;62.37;102814.34;5031315;28;20021;-81
2022/03/24 02:26:12;;;;;;;21.63;10.88;;;;;;;3.92;62.08;102814.47;5030393;28;20052;-82
2022/03/24 02:28:38;;;;;;;22.23;11.23;;;;;;;3.92;62.29;102813.63;5030355;28;20025;-82
2022/03/24 02:31:04;;;;;;;21.17;10.33;;;;;;;3.93;62.28;102817.94;5031408;28;20094;-82
2022/03/24 02:33:30;;;;;;;21.73;10.68;;;;;;;3.93;61.97;102818.81;5034909;28;20276;-82
2022/03/24 02:35:56;;;;;;;21.77;10.57;;;;;;;3.91;64.09;102824.72;5035633;28;20091;-82
2022/03/24 02:38:22;;;;;;;21.58;10.50;;;;;;;3.86;62.99;102819.38;5034690;28;20021;-82
2022/03/24 02:40:52;;;;;;;21.20;10.25;;;;;;;3.85;62.23;102818.47;5035751;28;20025;-82
2022/03/24 02:43:20;;;;;;;21.75;10.32;;;;;;;3.81;62.54;102818.28;5034649;28;20032;-82
2022/03/24 02:45:50;;;;;;;21.95;10.50;;;;;;;3.78;62.27;102815.56;5035422;28;20151;-82
2022/03/24 02:48:16;;;;;;;21.90;10.90;;;;;;;3.75;62.21;102818.00;5035107;28;20075;-82
2022/03/24 02:50:41;;;;;;;20.90;10.75;;;;;;;3.76;62.34;102818.06;5034703;28;20112;-82
2022/03/24 02:53:06;;;;;;;21.50;10.85;;;;;;;3.75;62.70;102813.75;5035264;28;20021;-82
2022/03/24 02:55:35;;;;;;;22.30;11.10;;;;;;;3.71;62.75;102811.88;5034199;28;20375;-81
2022/03/24 02:58:00;;;;;;;23.42;11.77;;;;;;;3.72;62.93;102821.28;5037746;28;20473;-82
2022/03/24 03:00:27;;;;;;;23.08;11.98;;;;;;;3.66;68.37;102824.47;5034647;28;20029;-82
2022/03/24 03:02:52;;;;;;;24.08;12.95;;;;;;;3.57;64.45;102824.06;5035373;28;20381;-82
2022/03/24 03:05:18;;;;;;;23.27;11.93;;;;;;;3.55;63.93;102821.44;5033861;28;20026;-82
2022/03/24 03:07:44;;;;;;;22.50;10.95;;;;;;;3.51;66.23;102821.22;5034532;28;20397;-82
2022/03/24 03:10:10;;;;;;;22.48;11.52;;;;;;;3.47;63.66;102819.31;5035025;28;20033;-82
2022/03/24 03:12:36;;;;;;;23.23;11.43;;;;;;;3.48;63.82;102814.28;5033904;28;20075;-82
2022/03/24 03:15:02;;;;;;;24.90;12.45;;;;;;;3.45;67.20;102818.34;5034698;28;20091;-82
2022/03/24 03:17:28;;;;;;;24.27;12.82;;;;;;;3.39;63.77;102819.84;5034009;28;20026;-82
2022/03/24 03:19:53;;;;;;;23.60;12.50;;;;;;;3.39;64.05;102817.28;5034282;28;20025;-82
2022/03/24 03:22:18;;;;;;;23.38;11.40;;;;;;;3.41;64.40;102809.63;5034291;28;20076;-82
2022/03/24 03:24:44;;;;;;;20.65;10.23;;;;;;;3.36;65.33;102822.25;5034546;28;20064;-82
2022/03/24 03:27:12;;;;;;;20.88;9.65;;;;;;;3.32;64.31;102817.78;5034122;28;20106;-81
2022/03/24 03:29:37;;;;;;;21.02;9.95;;;;;;;3.32;63.99;102814.34;5034550;28;20396;-82
2022/03/24 03:32:03;;;;;;;19.85;9.05;;;;;;;3.29;65.07;102812.53;5034789;28;20064;-82
2022/03/24 03:34:32;;;;;;;19.90;9.35;;;;;;;3.24;64.15;102814.88;5033696;28;20113;-81
2022/03/24 03:36:59;;;;;;;20.13;9.50;;;;;;;3.26;64.52;102816.66;5034920;28;20087;-82
2022/03/24 03:39:24;;;;;;;;;;;;;;;3.27;63.90;102816.72;5034498;28;20026;-82
2022/03/24 03:41:50;;;;;;;22.90;11.17;;;;;;;3.19;69.71;102826.59;5034552;28;20042;-82
2022/03/24 03:44:15;;;;;;;25.25;13.18;;;;;;;3.05;67.68;102813.13;5033993;28;20029;-81
2022/03/24 03:46:41;;;;;;;24.20;12.32;;;;;;;3.07;66.11;102816.66;5033723;28;20052;-82
2022/03/24 03:49:10;;;;;;;23.13;11.90;;;;;;;3.03;65.19;102808.75;5033650;28;20036;-82
2022/03/24 03:51:37;;;;;;;22.10;11.45;;;;;;;3.11;64.82;102815.13;5034089;28;20109;-81
2022/03/24 03:54:04;;;;;;;22.88;11.52;;;;;;;3.13;64.57;102813.50;5033357;28;20110;-82
2022/03/24 03:56:29;;;;;;;23.08;11.55;;;;;;;3.09;67.69;102814.16;5033428;28;20033;-82
2022/03/24 03:58:55;;;;;;;25.08;12.77;;;;;;;3.02;66.36;102822.38;5034000;28;20029;-82
2022/03/24 04:01:20;;;;;;;22.35;11.50;;;;;;;3.00;64.91;102826.56;5032744;28;20036;-81
2022/03/24 04:03:48;;;;;;;24.38;12.23;;;;;;;3.01;64.66;102815.47;5033979;28;20040;-82
2022/03/24 04:06:14;;;;;;;23.67;11.77;;;;;;;3.02;64.74;102824.94;5034109;28;20040;-82
2022/03/24 04:08:42;;;;;;;22.75;11.32;;;;;;;3.02;64.82;102827.50;5032931;28;20481;-82
2022/03/24 04:11:09;;;;;;;22.02;10.95;;;;;;;3.00;64.92;102826.56;5033746;28;20044;-82
2022/03/24 04:13:35;;;;;;;;;;;;;;;3.01;64.92;102830.88;5033793;28;20367;-82
2022/03/24 04:16:01;;;;;;;22.00;11.07;;;;;;;2.97;64.67;102829.84;5033121;28;19966;-82
2022/03/24 04:18:26;;;;;;;22.88;11.65;;;;;;;2.92;64.95;102821.03;5033375;28;20032;-82
2022/03/24 04:20:52;;;;;;;21.40;10.75;;;;;;;2.92;64.67;102827.06;5033234;28;20033;-82
2022/03/24 04:23:19;;;;;;;22.17;10.68;;;;;;;2.90;65.50;102828.69;5032831;28;20032;-82
2022/03/24 04:25:45;;;;;;;22.00;10.68;;;;;;;2.87;64.64;102818.25;5033670;28;20047;-81
2022/03/24 04:28:11;;;;;;;22.33;11.13;;;;;;;2.87;64.59;102823.38;5033804;28;20108;-82
2022/03/24 04:30:37;;;;;;;22.30;11.02;;;;;;;2.84;64.53;102823.22;5032551;28;20029;-82
2022/03/24 04:33:02;;;;;;;20.67;10.20;;;;;;;2.86;65.21;102826.75;5033258;28;20112;-82
2022/03/24 04:35:28;;;;;;;22.60;11.00;;;;;;;2.88;64.88;102821.69;5033127;28;20053;-82
2022/03/24 04:37:54;;;;;;;21.63;10.02;;;;;;;2.84;64.80;102812.97;5032809;28;20025;-82
2022/03/24 04:40:20;;;;;;;21.10;10.23;;;;;;;2.84;64.70;102820.66;5032885;28;20022;-82
2022/03/24 04:42:49;;;;;;;21.83;10.55;;;;;;;2.83;65.09;102824.03;5033118;28;20021;-81
2022/03/24 04:45:15;;;;;;;22.65;10.93;;;;;;;2.80;65.01;102820.44;5032939;28;20029;-81
2022/03/24 04:47:40;;;;;;;21.40;10.23;;;;;;;2.78;64.87;102817.81;5032528;28;20535;-82
2022/03/24 04:50:07;;;;;;;21.35;10.57;;;;;;;2.73;64.75;102824.41;5032463;28;20021;-82
2022/03/24 04:52:33;;;;;;;22.40;10.88;;;;;;;2.72;65.56;102828.66;5032352;28;20064;-82
2022/03/24 04:55:04;;;;;;;22.00;10.73;;;;;;;2.68;64.96;102829.28;5032636;28;20025;-82
2022/03/24 04:57:29;;;;;;;22.00;10.10;;;;;;;2.67;65.28;102830.09;5032041;28;20029;-82
2022/03/24 04:59:55;;;;;;;21.35;10.20;;;;;;;2.65;65.40;102828.28;5032735;28;20067;-82
2022/03/24 05:02:20;;;;;;;21.85;10.70;;;;;;;2.59;65.38;102816.91;5032467;28;20489;-82
2022/03/24 05:04:46;;;;;;;21.83;10.27;;;;;;;2.57;65.52;102825.31;5032135;28;20032;-81
2022/03/24 05:07:11;;;;;;;20.63;9.70;;;;;;;2.57;65.70;102833.91;5032725;28;20022;-82
2022/03/24 05:09:37;;;;;;;21.73;10.43;;;;;;;2.54;65.38;102825.16;5032729;28;20037;-82
2022/03/24 05:12:03;;;;;;;21.35;10.15;;;;;;;2.51;65.79;102825.03;5031913;28;20124;-82
2022/03/24 05:14:30;;;;;;;21.80;9.87;;;;;;;2.48;66.24;102828.28;5032600;28;20032;-82
2022/03/24 05:16:55;;;;;;;20.67;9.90;;;;;;;2.46;66.00;102832.50;5032726;28;20453;-82
2022/03/24 05:19:20;;;;;;;21.10;9.65;;;;;;;2.42;65.92;102825.44;5031534;28;20035;-82
2022/03/24 05:21:45;;;;;;;21.17;9.93;;;;;;;2.41;66.22;102829.69;5032481;28;20437;-82
2022/03/24 05:24:12;;;;;;;21.67;9.98;;;;;;;2.40;65.94;102827.94;5035023;28;20064;-81
2022/03/24 05:26:39;;;;;;;20.92;9.55;;;;;;;2.40;66.43;102835.63;5032890;28;20337;-82
2022/03/24 05:29:04;;;;;;;20.50;9.13;;;;;;;2.33;65.98;102828.41;5033647;28;20047;-81
2022/03/24 05:31:30;;;;;;;20.63;9.10;;;;;;;2.37;66.06;102842.25;5032514;28;20112;-82
2022/03/24 05:33:55;;;;;;;21.02;9.57;;;;;;;2.36;65.95;102843.09;5031706;28;20025;-82
2022/03/24 05:36:20;;;;;;;21.23;9.35;;;;;;;2.37;66.22;102837.13;5032868;28;20029;-82
2022/03/24 05:38:46;;;;;;;19.98;9.15;;;;;;;2.35;66.38;102842.19;5032920;28;20033;-82
2022/03/24 05:41:12;;;;;;;19.75;9.27;;;;;;;2.32;66.09;102842.03;5032006;28;20026;-82
2022/03/24 05:43:38;;;;;;;20.40;9.63;;;;;;;2.30;66.44;102836.84;5032168;28;20058;-82
2022/03/24 05:46:03;;;;;;;20.48;9.38;;;;;;;2.30;66.32;102834.25;5031676;28;20049;-82
2022/03/24 05:48:29;;;;;;;20.70;9.07;;;;;;;2.32;66.30;102849.72;5032187;28;20071;-82
2022/03/24 05:50:54;;;;;;;20.45;9.23;;;;;;;2.33;66.18;102838.66;5032788;28;20104;-82
2022/03/24 05:53:19;;;;;;;20.85;9.65;;;;;;;2.35;66.33;102843.88;5031680;28;20028;-82
2022/03/24 05:55:45;;;;;;;20.92;9.85;;;;;;;2.38;66.22;102846.56;5032479;28;20017;-81
2022/03/24 05:58:11;;;;;;;19.95;9.13;;;;;;;2.38;66.79;102838.88;5032403;28;20022;-82
2022/03/24 06:00:38;;;;;;;20.95;9.38;;;;;;;2.39;66.38;102843.22;5031290;28;20034;-82
2022/03/24 06:03:05;;;;;;;19.67;9.05;;;;;;;2.39;66.52;102845.78;5032479;28;20381;-82
2022/03/24 06:05:31;;;;;;;19.92;9.43;;;;;;;2.39;66.63;102849.25;5031966;28;20030;-82
2022/03/24 06:08:00;;;;;;;20.90;9.77;;;;;;;2.41;66.81;102847.66;5035074;28;20103;-81
2022/03/24 06:10:26;;;;;;;21.65;10.15;;;;;;;2.41;66.40;102854.44;5035879;28;20032;-81
2022/03/24 06:12:52;;;;;;;21.75;10.65;;;;;;;2.46;66.44;102856.44;5035887;28;20046;-81
2022/03/24 06:15:17;;;;;;;21.63;10.38;;;;;;;2.49;66.53;102858.25;5035142;28;20087;-80
2022/03/24 06:17:43;;;;;;;19.80;8.98;;;;;;;2.49;67.56;102860.81;5035855;28;20032;-81
2022/03/24 06:20:09;;;;;;;20.33;9.17;;;;;;;2.51;67.06;102860.91;5036094;28;20026;-81
2022/03/24 06:22:50;;;;;;;21.65;10.15;;;;;;;2.56;66.75;102860.34;5035658;28;20284;-81
2022/03/24 06:25:15;;;;;;;21.77;10.43;;;;;;;2.60;66.59;102859.69;5035601;28;20041;-81
2022/03/24 06:27:41;;;;;;;22.33;10.98;;;;;;;2.62;66.89;102859.78;5035669;28;20033;-81
2022/03/24 06:30:10;;;;;;;21.90;10.90;;;;;;;2.62;66.66;102857.22;5035310;28;20025;-81
2022/03/24 06:32:35;;;;;;;21.63;10.25;;;;;;;2.67;66.80;102865.13;5035503;28;20492;-81
2022/03/24 06:35:03;;;;;;;20.83;9.77;;;;;;;2.69;67.17;102859.25;5035609;28;20030;-81
2022/03/24 06:37:29;;;;;;;21.95;10.57;;;;;;;2.76;66.97;102866.44;5034767;28;20492;-81
2022/03/24 06:39:54;;;;;;;21.00;9.93;;;;;;;2.85;67.00;102867.72;5035426;28;20025;-81
2022/03/24 06:42:20;;;;;;;20.65;9.38;;;;;;;2.91;66.68;102870.56;5034518;28;20032;-81
2022/03/24 06:44:45;;;;;;;20.15;9.23;;;;;;;2.96;67.13;102863.09;5035381;28;20021;-82
2022/03/24 06:47:11;;;;;;;20.85;9.23;;;;;;;3.05;67.16;102867.00;5034929;28;20075;-81
2022/03/24 06:49:36;;;;;;;20.52;9.00;;;;;;;3.11;68.33;102869.00;5034687;28;20481;-81
2022/03/24 06:52:01;;;;;;;19.02;8.55;;;;;;;3.24;66.90;102865.31;5035247;28;20053;-81
2022/03/24 06:54:27;;;;;;;17.38;7.95;;;;;;;4.18;67.43;102863.59;5035205;28;20385;-81
2022/03/24 06:57:01;;;;;;;19.40;8.57;;;;;;;6.23;63.87;102863.88;5034727;28;20021;-81
2022/03/24 06:59:26;;;;;;;19.05;8.68;;;;;;;8.59;60.82;102861.53;5034460;28;20099;-82
2022/03/24 07:01:52;;;;;;;18.23;8.27;;;;;;;10.54;58.20;102844.94;5035096;28;20025;-85
2022/03/24 07:04:17;;;;;;;17.50;7.80;;;;;;;12.18;54.70;102856.69;5033848;28;20066;-84
2022/03/24 07:06:43;;;;;;;18.75;9.07;;;;;;;13.52;50.42;102856.84;5033950;28;20041;-84
2022/03/24 07:09:08;;;;;;;19.85;9.57;;;;;;;14.53;46.60;102849.25;5034738;28;20473;-80
2022/03/24 07:11:37;;;;;;;18.80;8.80;;;;;;;15.19;45.18;102843.13;5033814;28;20038;-80
2022/03/24 07:14:02;;;;;;;20.88;10.45;;;;;;;15.59;44.84;102860.44;5090012;22;20183;-81
2022/03/24 07:16:31;;;;;;;20.77;11.20;;;;;;;15.49;45.41;102863.94;5034269;28;20065;-81
2022/03/24 07:19:05;;;;;;;20.40;10.73;;;;;;;14.76;46.20;102862.34;5033431;28;20107;-81
2022/03/24 07:21:30;;;;;;;20.65;10.35;;;;;;;13.53;47.00;102870.75;5034491;28;20021;-80
2022/03/24 07:24:05;;;;;;;18.93;9.40;;;;;;;12.18;49.41;102875.78;5034623;28;20030;-80
2022/03/24 07:26:30;;;;;;;21.83;11.93;;;;;;;11.12;51.60;102870.94;5033076;28;20025;-80
2022/03/24 07:28:55;;;;;;;22.40;12.27;;;;;;;10.32;53.10;102869.59;5034886;28;20026;-80
2022/03/24 07:31:23;;;;;;;22.10;12.00;;;;;;;9.73;53.94;102878.84;5034274;28;20024;-81
2022/03/24 07:33:48;;;;;;;23.08;12.50;;;;;;;9.20;55.01;102876.81;5033029;28;20052;-80
2022/03/24 07:36:15;;;;;;;22.33;12.03;;;;;;;8.74;55.31;102877.44;5034258;28;20021;-81
2022/03/24 07:38:59;;;;;;;21.75;11.23;;;;;;;8.39;56.29;102877.38;5034417;28;20374;-81
2022/03/24 07:41:25;;;;;;;19.85;10.00;;;;;;;8.08;56.63;102883.41;5034461;28;20017;-81
2022/03/24 07:43:50;;;;;;;19.43;9.33;;;;;;;7.84;57.43;102884.47;5034644;28;20026;-81
2022/03/24 07:46:16;;;;;;;18.60;9.07;;;;;;;7.70;57.99;102884.09;5033584;28;20112;-81
2022/03/24 07:48:46;;;;;;;18.37;8.70;;;;;;;7.55;58.04;102882.78;5036511;28;20021;-81
2022/03/24 07:51:12;;;;;;;16.63;7.28;;;;;;;7.47;58.43;102886.84;5034978;28;20374;-83
2022/03/24 07:53:37;;;;;;;15.33;7.00;;;;;;;7.42;58.68;102891.03;5033940;28;20049;-82
2022/03/24 07:56:03;;;;;;;14.68;6.72;;;;;;;7.36;59.02;102883.97;5034970;28;20029;-82
2022/03/24 07:58:29;;;;;;;16.55;6.95;;;;;;;7.36;58.85;102881.38;5034294;28;20444;-83
2022/03/24 08:00:57;;;;;;;14.17;6.20;;;;;;;7.42;59.20;102884.13;5033690;28;20026;-82
2022/03/24 08:03:22;;;;;;;14.10;6.05;;;;;;;7.49;59.39;102882.63;5033226;28;20112;-82
2022/03/24 08:05:50;;;;;;;11.07;5.37;;;;;;;7.55;59.50;102889.69;5034460;28;20120;-82
2022/03/24 08:08:16;;;;;;;10.48;5.18;;;;;;;7.59;59.14;102886.38;5032720;28;20041;-83
2022/03/24 08:10:45;;;;;;;10.40;5.13;;;;;;;7.68;58.75;102884.03;5034218;28;20029;-82
2022/03/24 08:13:15;;;;;;;8.43;4.30;;;;;;;7.76;59.13;102897.22;5034019;28;20524;-82
2022/03/24 08:15:41;;;;;;;8.05;4.40;;;;;;;7.86;58.89;102898.34;5033053;28;20064;-82
2022/03/24 08:18:09;;;;;;;10.52;4.80;;;;;;;7.95;59.76;102893.41;5034069;28;20029;-82
2022/03/24 08:20:35;;;;;;;10.15;4.78;;;;;;;8.08;60.15;102889.50;5041016;28;20032;-82
2022/03/24 08:23:01;;;;;;;;;;;;;;;8.24;59.06;102895.06;5036930;28;20029;-82
2022/03/24 08:25:28;;;;;;;11.70;5.47;;;;;;;8.32;57.62;102891.00;5034367;28;20296;-83
2022/03/24 08:27:53;;;;;;;12.32;5.50;;;;;;;8.47;57.18;102896.59;5033212;28;20025;-82
2022/03/24 08:30:18;;;;;;;11.10;5.20;;;;;;;8.62;56.08;102897.84;5032334;28;20033;-83
2022/03/24 08:32:44;;;;;;;15.87;7.13;;;;;;;8.74;55.06;102895.56;5032944;28;20444;-83
2022/03/24 08:35:10;;;;;;;14.97;6.73;;;;;;;8.90;55.26;102902.00;5032471;28;20017;-82
2022/03/24 08:37:36;;;;;;;19.87;8.90;;;;;;;9.06;54.72;102892.91;5033427;28;20037;-83
2022/03/24 08:40:04;;;;;;;20.37;10.00;;;;;;;9.26;55.11;102897.66;5033516;28;20378;-82
2022/03/24 08:42:29;;;;;;;20.27;9.75;;;;;;;9.45;55.66;102898.09;5032369;28;20072;-82
2022/03/24 08:44:55;;;;;;;19.63;9.53;;;;;;;9.58;54.76;102894.91;5033362;28;20493;-83
2022/03/24 08:47:20;;;;;;;21.70;11.83;;;;;;;9.78;52.91;102902.28;5032903;28;20370;-83
2022/03/24 08:49:45;;;;;;;21.43;11.07;;;;;;;9.91;53.25;102899.06;5032660;28;20040;-82
2022/03/24 08:52:12;;;;;;;23.30;12.70;;;;;;;10.04;51.78;102895.88;5033183;28;20108;-83
2022/03/24 08:54:37;;;;;;;25.90;15.23;;;;;;;10.25;51.54;102899.72;5032923;28;20071;-83
2022/03/24 08:57:03;;;;;;;25.77;15.17;;;;;;;10.43;51.25;102895.78;5031997;28;20105;-83
2022/03/24 08:59:28;;;;;;;24.77;14.47;;;;;;;10.60;52.17;102890.88;5032693;28;20021;-82
2022/03/24 09:01:53;;;;;;;22.40;12.17;;;;;;;10.75;48.20;102896.34;5032821;28;20394;-83
2022/03/24 09:04:20;;;;;;;24.90;15.57;;;;;;;10.97;48.58;102894.13;5032368;28;20021;-83
2022/03/24 09:06:48;;;;;;;25.10;14.48;;;;;;;11.15;47.74;102895.25;5033167;28;20018;-83
2022/03/24 09:09:14;;;;;;;25.70;16.00;;;;;;;11.36;48.38;102900.75;5033169;28;20032;-82
2022/03/24 09:11:39;;;;;;;24.73;14.43;;;;;;;11.54;47.71;102905.34;5031816;28;20025;-83
2022/03/24 09:14:05;;;;;;;27.10;17.73;;;;;;;11.74;44.78;102903.00;5032661;28;20046;-82
2022/03/24 09:16:30;;;;;;;28.13;18.47;;;;;;;11.95;43.65;102908.44;5032297;28;20470;-82
2022/03/24 09:18:55;;;;;;;28.00;18.00;;;;;;;12.15;44.04;102903.50;5031932;28;20029;-82
2022/03/24 09:21:20;;;;;;;27.40;16.73;;;;;;;12.32;43.92;102906.31;5032427;28;20083;-82
2022/03/24 09:23:46;;;;;;;29.17;18.50;;;;;;;12.54;41.40;102907.41;5032716;28;20388;-83
2022/03/24 09:26:12;;;;;;;29.17;18.13;;;;;;;12.75;43.96;102906.72;5031518;28;20561;-82
2022/03/24 09:28:38;;;;;;;29.23;19.00;;;;;;;12.94;43.88;102906.88;5032283;28;20112;-82
2022/03/24 09:31:03;;;;;;;28.10;18.13;;;;;;;13.07;40.06;102895.66;5032080;28;20030;-83
2022/03/24 09:33:28;;;;;;;25.97;16.83;;;;;;;13.26;41.76;102899.28;5030367;28;20563;-83
2022/03/24 09:35:53;;;;;;;26.73;16.90;;;;;;;13.50;38.77;102909.88;5032132;28;20504;-82
2022/03/24 09:38:19;;;;;;;25.10;16.13;;;;;;;13.61;35.26;102897.78;5031626;28;20033;-82
2022/03/24 09:40:45;;;;;;;27.52;17.90;;;;;;;13.86;33.87;102913.50;5047615;28;20052;-82
2022/03/24 09:43:13;;;;;;;27.37;17.80;;;;;;;14.00;36.99;102908.38;5056166;28;20437;-82
2022/03/24 09:45:40;;;;;;;24.70;15.30;;;;;;;14.14;37.59;102911.00;5042983;28;20091;-82
2022/03/24 09:48:06;;;;;;;27.15;17.52;;;;;;;14.29;35.07;102911.06;5016042;28;20451;-83
2022/03/24 09:50:34;;;;;;;26.70;17.65;;;;;;;14.39;32.51;102905.84;5014910;28;20164;-82
2022/03/24 09:53:00;;;;;;;26.17;17.15;;;;;;;14.52;34.01;102907.63;5027581;28;20071;-82
2022/03/24 09:55:26;;;;;;;27.10;17.85;;;;;;;14.65;34.47;102904.13;5034968;28;20470;-81
2022/03/24 09:57:51;;;;;;;25.48;16.52;;;;;;;14.72;34.88;102902.41;5036417;28;20026;-82
2022/03/24 10:00:23;;;;;;;26.10;17.10;;;;;;;14.89;35.12;102904.19;5035366;28;20026;-81
2022/03/24 10:03:07;;;;;;;26.17;16.98;;;;;;;14.98;36.25;102905.03;5036206;28;20026;-81
2022/03/24 10:05:32;;;;;;;26.45;18.00;;;;;;;15.11;31.43;102912.84;5036687;28;20385;-83
2022/03/24 10:08:04;;;;;;;27.43;18.03;;;;;;;15.20;31.56;102909.38;5035534;28;20025;-84
2022/03/24 10:10:31;;;;;;;28.02;19.00;;;;;;;15.27;31.04;102905.84;5035854;28;20025;-81
2022/03/24 10:12:56;;;;;;;26.63;17.30;;;;;;;15.38;32.21;102908.47;5036053;28;20045;-81
2022/03/24 10:15:22;;;;;;;24.13;15.50;;;;;;;15.42;32.60;102892.75;5035247;28;20500;-81
2022/03/24 10:17:56;;;;;;;21.97;13.33;;;;;;;15.52;31.77;102898.84;5035863;28;20477;-80
2022/03/24 10:20:23;;;;;;;22.00;13.35;;;;;;;15.66;32.92;102897.88;5034863;28;20025;-80
2022/03/24 10:22:54;;;;;;;23.42;14.82;;;;;;;15.80;29.31;102896.09;5035699;28;20123;-81
2022/03/24 10:25:22;;;;;;;23.38;15.65;;;;;;;15.88;29.10;102891.72;5035869;28;20041;-81
2022/03/24 10:28:00;;;;;;;23.98;15.60;;;;;;;16.00;30.61;102890.81;5035221;28;20389;-81
2022/03/24 10:30:26;;;;;;;22.77;14.35;;;;;;;16.13;29.51;102885.50;5035751;28;20060;-81
2022/03/24 10:32:56;;;;;;;21.07;12.93;;;;;;;16.23;30.59;102881.94;5035541;28;20159;-81
2022/03/24 10:35:22;;;;;;;21.17;13.07;;;;;;;16.37;29.74;102884.47;5034827;28;20021;-81
2022/03/24 10:37:52;;;;;;;23.23;15.07;;;;;;;16.49;29.99;102886.13;5036340;28;20117;-81
2022/03/24 10:40:17;;;;;;;23.05;14.55;;;;;;;16.61;28.24;102886.00;5035342;28;20478;-81
2022/03/24 10:42:43;;;;;;;20.97;12.90;;;;;;;16.70;28.96;102887.69;5034863;28;20045;-81
2022/03/24 10:45:09;;;;;;;21.47;13.37;;;;;;;16.74;27.24;102889.41;5035341;28;20155;-84
2022/03/24 10:47:48;;;;;;;22.98;14.43;;;;;;;16.76;28.46;102881.53;5034964;28;20042;-84
2022/03/24 10:50:40;;;;;;;24.15;15.43;;;;;;;16.78;29.54;102885.00;5035039;28;20101;-84
2022/03/24 10:53:16;;;;;;;21.83;14.30;;;;;;;16.91;25.67;102875.28;5031541;28;20462;-83
2022/03/24 10:55:44;;;;;;;23.17;15.02;;;;;;;16.94;25.72;102878.75;5034338;28;20317;-83
2022/03/24 10:58:14;;;;;;;25.05;16.15;;;;;;;16.88;26.45;102883.19;5035150;28;20037;-84
2022/03/24 11:00:41;;;;;;;23.70;14.68;;;;;;;16.86;29.32;102877.09;5034523;28;20029;-82
2022/03/24 11:03:07;;;;;;;22.85;14.90;;;;;;;16.91;27.00;102878.78;5034500;28;20236;-82
2022/03/24 11:05:33;;;;;;;24.98;15.88;;;;;;;16.92;25.38;102877.91;5035153;28;20068;-82
2022/03/24 11:07:58;;;;;;;22.43;13.83;;;;;;;17.00;28.98;102876.97;5035221;28;20489;-82
2022/03/24 11:10:24;;;;;;;19.70;11.47;;;;;;;17.25;29.04;102882.84;5034115;28;20100;-81
2022/03/24 11:12:54;;;;;;;22.87;14.63;;;;;;;17.39;28.33;102875.69;5034578;28;20386;-81
2022/03/24 11:15:22;;;;;;;23.10;14.23;;;;;;;17.42;30.16;102880.91;5034792;28;20021;-81
2022/03/24 11:17:48;;;;;;;23.40;14.40;;;;;;;17.50;30.09;102875.56;5033616;28;20595;-81